sensor_id;sensor_type;location;lat;lon;timestamp;pressure;altitude;pressure_sealevel;temperature;humidity
30073;BME280;16897;52.422;13.678;2023-02-11T00:02:51;102586.50;;;5.61;56.63
30073;BME280;16897;52.422;13.678;2023-02-11T00:06:53;102569.25;;;5.59;56.91
30073;BME280;16897;52.422;13.678;2023-02-11T00:10:56;102531.34;;;5.31;56.75
30073;BME280;16897;52.422;13.678;2023-02-11T00:14:57;102569.28;;;5.54;56.67
30073;BME280;16897;52.422;13.678;2023-02-11T00:19:00;102539.09;;;5.42;56.76
30073;BME280;16897;52.422;13.678;2023-02-11T00:23:01;102549.47;;;5.39;56.82
30073;BME280;16897;52.422;13.678;2023-02-11T00:27:03;102596.03;;;5.58;56.90
30073;BME280;16897;52.422;13.678;2023-02-11T00:31:04;102600.34;;;5.59;56.79
30073;BME280;16897;52.422;13.678;2023-02-11T00:35:06;102607.25;;;5.58;56.93
30073;BME280;16897;52.422;13.678;2023-02-11T00:39:09;102589.97;;;5.60;56.92
30073;BME280;16897;52.422;13.678;2023-02-11T00:43:10;102564.94;;;5.62;56.70
30073;BME280;16897;52.422;13.678;2023-02-11T00:47:12;102553.72;;;5.57;56.79
30073;BME280;16897;52.422;13.678;2023-02-11T00:56:17;102544.25;;;5.47;56.66
30073;BME280;16897;52.422;13.678;2023-02-11T01:00:19;102558.91;;;5.54;56.87
30073;BME280;16897;52.422;13.678;2023-02-11T01:04:20;102560.63;;;5.53;56.57
30073;BME280;16897;52.422;13.678;2023-02-11T01:08:22;102551.16;;;5.54;56.72
30073;BME280;16897;52.422;13.678;2023-02-11T01:12:24;102549.34;;;5.64;56.93
30073;BME280;16897;52.422;13.678;2023-02-11T01:16:26;102535.50;;;5.69;56.86
30073;BME280;16897;52.422;13.678;2023-02-11T01:20:27;102540.69;;;5.71;56.88
30073;BME280;16897;52.422;13.678;2023-02-11T01:24:31;102507.91;;;5.62;56.88
30073;BME280;16897;52.422;13.678;2023-02-11T01:28:33;102426.16;;;5.14;56.78
30073;BME280;16897;52.422;13.678;2023-02-11T01:32:34;102449.28;;;5.41;56.78
30073;BME280;16897;52.422;13.678;2023-02-11T01:36:36;102474.22;;;5.56;56.77
30073;BME280;16897;52.422;13.678;2023-02-11T01:40:38;102435.56;;;5.21;56.78
30073;BME280;16897;52.422;13.678;2023-02-11T01:44:39;102504.41;;;5.66;56.89
30073;BME280;16897;52.422;13.678;2023-02-11T01:48:43;102488.94;;;5.57;57.20
30073;BME280;16897;52.422;13.678;2023-02-11T01:52:46;102488.03;;;5.61;56.75
30073;BME280;16897;52.422;13.678;2023-02-11T01:56:51;102479.34;;;5.68;56.81
30073;BME280;16897;52.422;13.678;2023-02-11T02:01:13;102479.41;;;5.62;56.85
30073;BME280;16897;52.422;13.678;2023-02-11T02:09:39;102475.88;;;5.69;56.95
30073;BME280;16897;52.422;13.678;2023-02-11T02:13:42;102473.31;;;5.68;56.88
30073;BME280;16897;52.422;13.678;2023-02-11T02:17:49;102487.09;;;5.73;56.93
30073;BME280;16897;52.422;13.678;2023-02-11T02:35:08;102454.22;;;5.80;56.80
30073;BME280;16897;52.422;13.678;2023-02-11T02:39:33;102448.19;;;5.76;56.94
30073;BME280;16897;52.422;13.678;2023-02-11T02:43:39;102437.84;;;5.74;56.87
30073;BME280;16897;52.422;13.678;2023-02-11T02:47:41;102434.34;;;5.77;56.71
30073;BME280;16897;52.422;13.678;2023-02-11T02:56:44;102443.75;;;5.90;56.78
30073;BME280;16897;52.422;13.678;2023-02-11T03:05:20;102432.50;;;5.96;56.72
30073;BME280;16897;52.422;13.678;2023-02-11T03:09:33;102424.72;;;5.93;56.77
30073;BME280;16897;52.422;13.678;2023-02-11T03:13:38;102399.72;;;5.86;56.92
30073;BME280;16897;52.422;13.678;2023-02-11T03:17:42;102415.25;;;5.93;57.01
30073;BME280;16897;52.422;13.678;2023-02-11T03:21:44;102357.56;;;5.64;56.75
30073;BME280;16897;52.422;13.678;2023-02-11T03:26:25;102425.53;;;6.06;56.98
30073;BME280;16897;52.422;13.678;2023-02-11T03:30:35;102427.25;;;6.05;57.01
30073;BME280;16897;52.422;13.678;2023-02-11T03:38:47;102398.75;;;6.05;56.78
30073;BME280;16897;52.422;13.678;2023-02-11T03:42:53;102398.75;;;6.05;56.99
30073;BME280;16897;52.422;13.678;2023-02-11T03:46:56;102397.88;;;6.03;56.81
30073;BME280;16897;52.422;13.678;2023-02-11T03:51:00;102417.72;;;6.09;56.84
30073;BME280;16897;52.422;13.678;2023-02-11T03:55:07;102390.13;;;5.98;56.78
30073;BME280;16897;52.422;13.678;2023-02-11T03:59:09;102412.44;;;6.19;56.85
30073;BME280;16897;52.422;13.678;2023-02-11T04:03:11;102386.56;;;6.12;56.94
30073;BME280;16897;52.422;13.678;2023-02-11T04:07:13;102389.94;;;6.22;56.99
30073;BME280;16897;52.422;13.678;2023-02-11T04:11:15;102385.59;;;6.22;57.02
30073;BME280;16897;52.422;13.678;2023-02-11T04:15:16;102393.34;;;6.24;56.78
30073;BME280;16897;52.422;13.678;2023-02-11T04:19:18;102399.34;;;6.29;57.04
30073;BME280;16897;52.422;13.678;2023-02-11T04:23:20;102406.19;;;6.36;57.03
30073;BME280;16897;52.422;13.678;2023-02-11T04:27:21;102398.47;;;6.33;57.01
30073;BME280;16897;52.422;13.678;2023-02-11T04:31:23;102382.06;;;6.28;57.08
30073;BME280;16897;52.422;13.678;2023-02-11T04:35:24;102363.22;;;6.12;56.93
30073;BME280;16897;52.422;13.678;2023-02-11T04:39:26;102375.19;;;6.27;56.86
30073;BME280;16897;52.422;13.678;2023-02-11T04:43:28;102399.16;;;6.47;57.05
30073;BME280;16897;52.422;13.678;2023-02-11T04:47:29;102378.44;;;6.44;56.93
30073;BME280;16897;52.422;13.678;2023-02-11T04:51:31;102376.69;;;6.46;56.90
30073;BME280;16897;52.422;13.678;2023-02-11T04:55:32;102371.47;;;6.48;56.87
30073;BME280;16897;52.422;13.678;2023-02-11T04:59:34;102367.16;;;6.47;56.93
30073;BME280;16897;52.422;13.678;2023-02-11T05:03:36;102351.56;;;6.50;56.93
30073;BME280;16897;52.422;13.678;2023-02-11T05:07:37;102350.63;;;6.55;57.14
30073;BME280;16897;52.422;13.678;2023-02-11T05:11:39;102352.28;;;6.62;57.05
30073;BME280;16897;52.422;13.678;2023-02-11T05:15:40;102343.63;;;6.62;57.06
30073;BME280;16897;52.422;13.678;2023-02-11T05:19:42;102316.06;;;6.52;56.92
30073;BME280;16897;52.422;13.678;2023-02-11T05:23:44;102309.13;;;6.52;57.06
30073;BME280;16897;52.422;13.678;2023-02-11T05:27:46;102307.31;;;6.60;56.95
30073;BME280;16897;52.422;13.678;2023-02-11T05:31:47;102298.66;;;6.58;57.04
30073;BME280;16897;52.422;13.678;2023-02-11T05:35:49;102316.66;;;6.72;56.87
30073;BME280;16897;52.422;13.678;2023-02-11T05:39:51;102298.56;;;6.66;57.09
30073;BME280;16897;52.422;13.678;2023-02-11T05:43:52;102305.50;;;6.65;56.83
30073;BME280;16897;52.422;13.678;2023-02-11T05:47:54;102304.56;;;6.70;57.05
30073;BME280;16897;52.422;13.678;2023-02-11T05:51:56;102277.00;;;6.62;57.03
30073;BME280;16897;52.422;13.678;2023-02-11T05:55:58;102255.47;;;6.54;57.02
30073;BME280;16897;52.422;13.678;2023-02-11T05:59:59;102262.34;;;6.58;56.97
30073;BME280;16897;52.422;13.678;2023-02-11T06:04:01;102294.13;;;6.74;56.97
30073;BME280;16897;52.422;13.678;2023-02-11T06:08:02;102300.25;;;6.70;57.00
30073;BME280;16897;52.422;13.678;2023-02-11T06:12:04;102298.47;;;6.74;57.09
30073;BME280;16897;52.422;13.678;2023-02-11T06:16:06;102326.88;;;6.86;57.13
30073;BME280;16897;52.422;13.678;2023-02-11T06:20:08;102321.78;;;6.78;57.13
30073;BME280;16897;52.422;13.678;2023-02-11T06:24:11;102320.88;;;6.79;56.98
30073;BME280;16897;52.422;13.678;2023-02-11T06:28:12;102333.66;;;6.95;56.93
30073;BME280;16897;52.422;13.678;2023-02-11T06:32:14;102287.25;;;6.72;57.05
30073;BME280;16897;52.422;13.678;2023-02-11T06:36:18;102327.63;;;6.94;56.99
30073;BME280;16897;52.422;13.678;2023-02-11T06:40:20;102345.66;;;7.02;57.19
30073;BME280;16897;52.422;13.678;2023-02-11T06:44:22;102331.81;;;7.03;57.12
30073;BME280;16897;52.422;13.678;2023-02-11T06:48:23;102308.50;;;6.98;57.01
30073;BME280;16897;52.422;13.678;2023-02-11T06:52:25;102302.41;;;7.02;57.06
30073;BME280;16897;52.422;13.678;2023-02-11T06:56:27;102298.00;;;7.04;57.20
30073;BME280;16897;52.422;13.678;2023-02-11T07:00:29;102295.41;;;7.04;57.08
30073;BME280;16897;52.422;13.678;2023-02-11T07:04:30;102283.34;;;7.02;57.10
30073;BME280;16897;52.422;13.678;2023-02-11T07:08:33;102256.78;;;6.83;57.04
30073;BME280;16897;52.422;13.678;2023-02-11T07:12:34;102307.41;;;7.15;57.09
30073;BME280;16897;52.422;13.678;2023-02-11T07:16:37;102303.13;;;7.11;57.30
30073;BME280;16897;52.422;13.678;2023-02-11T07:20:38;102273.84;;;7.01;57.04
30073;BME280;16897;52.422;13.678;2023-02-11T07:24:40;102296.09;;;7.19;57.28
30073;BME280;16897;52.422;13.678;2023-02-11T07:28:42;102290.84;;;7.22;57.14
30073;BME280;16897;52.422;13.678;2023-02-11T07:32:43;102294.28;;;7.24;57.40
30073;BME280;16897;52.422;13.678;2023-02-11T07:36:45;102268.25;;;7.25;57.32
30073;BME280;16897;52.422;13.678;2023-02-11T07:40:46;102290.63;;;7.34;57.35
30073;BME280;16897;52.422;13.678;2023-02-11T07:44:48;102256.16;;;7.23;57.21
30073;BME280;16897;52.422;13.678;2023-02-11T07:48:49;102253.38;;;7.35;57.33
30073;BME280;16897;52.422;13.678;2023-02-11T07:52:51;102239.63;;;7.28;57.24
30073;BME280;16897;52.422;13.678;2023-02-11T07:56:52;102254.25;;;7.34;57.23
30073;BME280;16897;52.422;13.678;2023-02-11T08:00:54;102243.81;;;7.37;57.22
30073;BME280;16897;52.422;13.678;2023-02-11T08:04:55;102290.38;;;7.49;57.50
30073;BME280;16897;52.422;13.678;2023-02-11T08:08:57;102266.19;;;7.46;57.47
30073;BME280;16897;52.422;13.678;2023-02-11T08:13:03;102281.59;;;7.57;57.32
30073;BME280;16897;52.422;13.678;2023-02-11T08:17:05;102307.59;;;7.57;57.30
30073;BME280;16897;52.422;13.678;2023-02-11T08:21:08;102316.00;;;7.71;57.49
30073;BME280;16897;52.422;13.678;2023-02-11T08:25:10;102304.75;;;7.69;57.51
30073;BME280;16897;52.422;13.678;2023-02-11T08:29:13;102248.84;;;7.45;57.54
30073;BME280;16897;52.422;13.678;2023-02-11T08:33:14;102265.19;;;7.53;57.51
30073;BME280;16897;52.422;13.678;2023-02-11T08:37:16;102301.94;;;7.81;57.49
30073;BME280;16897;52.422;13.678;2023-02-11T08:41:18;102284.59;;;7.82;57.67
30073;BME280;16897;52.422;13.678;2023-02-11T08:45:19;102277.00;;;7.71;57.41
30073;BME280;16897;52.422;13.678;2023-02-11T08:49:21;102304.25;;;7.98;57.54
30073;BME280;16897;52.422;13.678;2023-02-11T08:53:22;102306.69;;;8.06;57.32
30073;BME280;16897;52.422;13.678;2023-02-11T08:57:24;102272.31;;;7.90;57.28
30073;BME280;16897;52.422;13.678;2023-02-11T09:01:27;102238.66;;;7.82;57.36
30073;BME280;16897;52.422;13.678;2023-02-11T09:05:29;102264.22;;;8.05;57.54
30073;BME280;16897;52.422;13.678;2023-02-11T09:09:30;102236.72;;;7.92;57.46
30073;BME280;16897;52.422;13.678;2023-02-11T09:13:32;102285.69;;;8.15;57.61
30073;BME280;16897;52.422;13.678;2023-02-11T09:17:33;102285.53;;;8.23;57.42
30073;BME280;16897;52.422;13.678;2023-02-11T09:21:35;102241.03;;;7.93;57.66
30073;BME280;16897;52.422;13.678;2023-02-11T09:25:40;102292.44;;;8.25;57.57
30073;BME280;16897;52.422;13.678;2023-02-11T09:29:41;102300.28;;;8.24;57.53
30073;BME280;16897;52.422;13.678;2023-02-11T09:33:45;102313.13;;;8.31;57.47
30073;BME280;16897;52.422;13.678;2023-02-11T09:37:49;102305.28;;;8.33;57.48
30073;BME280;16897;52.422;13.678;2023-02-11T09:46:45;102302.78;;;8.28;57.51
30073;BME280;16897;52.422;13.678;2023-02-11T09:50:50;102228.25;;;7.82;57.66
30073;BME280;16897;52.422;13.678;2023-02-11T09:54:56;102269.44;;;8.04;57.73
30073;BME280;16897;52.422;13.678;2023-02-11T09:58:59;102328.47;;;8.47;57.74
30073;BME280;16897;52.422;13.678;2023-02-11T10:07:55;102331.91;;;8.47;57.56
30073;BME280;16897;52.422;13.678;2023-02-11T10:21:26;102374.81;;;8.71;57.69
30073;BME280;16897;52.422;13.678;2023-02-11T10:25:38;102357.56;;;8.67;57.84
30073;BME280;16897;52.422;13.678;2023-02-11T10:29:44;102338.50;;;8.65;57.82
30073;BME280;16897;52.422;13.678;2023-02-11T10:33:59;102367.72;;;8.79;57.73
30073;BME280;16897;52.422;13.678;2023-02-11T10:38:02;102363.41;;;8.78;57.66
30073;BME280;16897;52.422;13.678;2023-02-11T10:42:07;102356.34;;;8.83;57.63
30073;BME280;16897;52.422;13.678;2023-02-11T10:46:17;102309.06;;;8.61;57.64
30073;BME280;16897;52.422;13.678;2023-02-11T10:50:27;102340.59;;;8.88;57.80
30073;BME280;16897;52.422;13.678;2023-02-11T10:54:30;102277.19;;;8.50;57.90
30073;BME280;16897;52.422;13.678;2023-02-11T10:58:45;102240.09;;;8.40;57.69
30073;BME280;16897;52.422;13.678;2023-02-11T11:02:55;102298.31;;;8.77;57.76
30073;BME280;16897;52.422;13.678;2023-02-11T11:07:15;102304.09;;;8.91;57.85
30073;BME280;16897;52.422;13.678;2023-02-11T11:11:18;102292.69;;;8.94;57.80
30073;BME280;16897;52.422;13.678;2023-02-11T11:15:30;102295.13;;;9.01;57.99
30073;BME280;16897;52.422;13.678;2023-02-11T11:19:32;102299.56;;;8.98;57.92
30073;BME280;16897;52.422;13.678;2023-02-11T11:23:34;102321.13;;;9.04;58.01
30073;BME280;16897;52.422;13.678;2023-02-11T11:27:37;102302.03;;;9.04;57.92
30073;BME280;16897;52.422;13.678;2023-02-11T11:31:47;102247.13;;;8.74;58.01
30073;BME280;16897;52.422;13.678;2023-02-11T11:36:08;102288.31;;;8.96;57.86
30073;BME280;16897;52.422;13.678;2023-02-11T11:48:35;102300.22;;;9.07;57.97
30073;BME280;16897;52.422;13.678;2023-02-11T11:52:45;102288.19;;;9.02;58.02
30073;BME280;16897;52.422;13.678;2023-02-11T11:56:57;102283.94;;;8.98;58.10
30073;BME280;16897;52.422;13.678;2023-02-11T12:05:24;102316.41;;;9.20;58.02
30073;BME280;16897;52.422;13.678;2023-02-11T12:18:40;102309.31;;;9.27;58.20
30073;BME280;16897;52.422;13.678;2023-02-11T12:23:04;102313.59;;;9.29;58.13
30073;BME280;16897;52.422;13.678;2023-02-11T12:35:53;102285.69;;;9.33;58.18
30073;BME280;16897;52.422;13.678;2023-02-11T12:40:18;102277.09;;;9.29;58.23
30073;BME280;16897;52.422;13.678;2023-02-11T12:53:23;102308.91;;;9.42;58.27
30073;BME280;16897;52.422;13.678;2023-02-11T12:57:31;102313.94;;;9.50;58.24
30073;BME280;16897;52.422;13.678;2023-02-11T13:01:35;102310.31;;;9.56;58.15
30073;BME280;16897;52.422;13.678;2023-02-11T13:05:53;102293.16;;;9.47;58.25
30073;BME280;16897;52.422;13.678;2023-02-11T13:10:02;102304.34;;;9.52;58.26
30073;BME280;16897;52.422;13.678;2023-02-11T13:14:40;102325.78;;;9.63;58.31
30073;BME280;16897;52.422;13.678;2023-02-11T13:19:02;102332.69;;;9.66;58.24
30073;BME280;16897;52.422;13.678;2023-02-11T13:31:52;102337.03;;;9.65;58.35
30073;BME280;16897;52.422;13.678;2023-02-11T13:40:05;102351.59;;;9.74;58.27
30073;BME280;16897;52.422;13.678;2023-02-11T13:48:23;102336.09;;;9.68;58.32
30073;BME280;16897;52.422;13.678;2023-02-11T13:52:31;102363.78;;;9.73;58.47
30073;BME280;16897;52.422;13.678;2023-02-11T13:56:39;102346.53;;;9.69;58.33
30073;BME280;16897;52.422;13.678;2023-02-11T14:00:49;102350.75;;;9.73;58.44
30073;BME280;16897;52.422;13.678;2023-02-11T14:09:35;102343.81;;;9.72;58.35
30073;BME280;16897;52.422;13.678;2023-02-11T14:17:48;102327.44;;;9.67;58.38
30073;BME280;16897;52.422;13.678;2023-02-11T14:21:49;102332.47;;;9.73;58.38
30073;BME280;16897;52.422;13.678;2023-02-11T14:26:07;102322.22;;;9.67;58.43
30073;BME280;16897;52.422;13.678;2023-02-11T14:39:28;102334.16;;;9.76;58.38
30073;BME280;16897;52.422;13.678;2023-02-11T14:43:39;102317.97;;;9.63;58.61
30073;BME280;16897;52.422;13.678;2023-02-11T14:48:15;102360.75;;;9.90;58.44
30073;BME280;16897;52.422;13.678;2023-02-11T14:52:28;102357.38;;;9.85;58.39
30073;BME280;16897;52.422;13.678;2023-02-11T14:56:30;102363.41;;;9.89;58.43
30073;BME280;16897;52.422;13.678;2023-02-11T15:00:32;102380.69;;;9.93;58.42
30073;BME280;16897;52.422;13.678;2023-02-11T15:04:33;102392.78;;;9.95;58.59
30073;BME280;16897;52.422;13.678;2023-02-11T15:08:36;102406.66;;;9.97;58.54
30073;BME280;16897;52.422;13.678;2023-02-11T15:12:44;102399.78;;;9.93;58.40
30073;BME280;16897;52.422;13.678;2023-02-11T15:16:48;102408.44;;;9.97;58.49
30073;BME280;16897;52.422;13.678;2023-02-11T15:20:51;102405.06;;;9.92;58.60
30073;BME280;16897;52.422;13.678;2023-02-11T15:25:00;102429.13;;;10.03;58.64
30073;BME280;16897;52.422;13.678;2023-02-11T15:29:14;102421.31;;;10.03;58.55
30073;BME280;16897;52.422;13.678;2023-02-11T15:33:22;102421.34;;;10.02;58.59
30073;BME280;16897;52.422;13.678;2023-02-11T15:37:27;102393.16;;;9.80;58.44
30073;BME280;16897;52.422;13.678;2023-02-11T15:41:35;102378.66;;;9.70;58.62
30073;BME280;16897;52.422;13.678;2023-02-11T15:45:41;102435.13;;;10.07;58.54
30073;BME280;16897;52.422;13.678;2023-02-11T15:49:45;102394.09;;;9.79;58.61
30073;BME280;16897;52.422;13.678;2023-02-11T15:53:48;102424.84;;;10.02;58.71
30073;BME280;16897;52.422;13.678;2023-02-11T15:57:58;102429.13;;;10.03;58.71
30073;BME280;16897;52.422;13.678;2023-02-11T16:06:26;102410.13;;;9.98;58.59
30073;BME280;16897;52.422;13.678;2023-02-11T16:10:34;102442.88;;;10.10;58.71
30073;BME280;16897;52.422;13.678;2023-02-11T16:14:36;102425.63;;;10.04;58.76
30073;BME280;16897;52.422;13.678;2023-02-11T16:18:44;102424.09;;;9.97;58.60
30073;BME280;16897;52.422;13.678;2023-02-11T16:22:48;102455.94;;;10.10;58.54
30073;BME280;16897;52.422;13.678;2023-02-11T16:26:51;102457.59;;;10.14;58.60
30073;BME280;16897;52.422;13.678;2023-02-11T16:30:54;102436.78;;;10.11;58.75
30073;BME280;16897;52.422;13.678;2023-02-11T16:34:57;102449.78;;;10.12;58.68
30073;BME280;16897;52.422;13.678;2023-02-11T16:38:59;102434.38;;;10.02;58.61
30073;BME280;16897;52.422;13.678;2023-02-11T16:43:00;102461.88;;;10.15;58.85
30073;BME280;16897;52.422;13.678;2023-02-11T16:47:02;102456.72;;;10.13;58.87
30073;BME280;16897;52.422;13.678;2023-02-11T16:51:04;102483.50;;;10.22;58.72
30073;BME280;16897;52.422;13.678;2023-02-11T16:55:09;102445.84;;;9.96;58.75
30073;BME280;16897;52.422;13.678;2023-02-11T16:59:10;102470.00;;;10.04;58.75
30073;BME280;16897;52.422;13.678;2023-02-11T17:03:20;102486.28;;;10.15;58.85
30073;BME280;16897;52.422;13.678;2023-02-11T17:07:23;102467.63;;;9.95;58.73
30073;BME280;16897;52.422;13.678;2023-02-11T17:11:24;102477.97;;;10.00;58.72
30073;BME280;16897;52.422;13.678;2023-02-11T17:15:25;102525.97;;;10.30;58.81
30073;BME280;16897;52.422;13.678;2023-02-11T17:19:27;102513.84;;;10.26;58.66
30073;BME280;16897;52.422;13.678;2023-02-11T17:23:28;102525.19;;;10.25;58.84
30073;BME280;16897;52.422;13.678;2023-02-11T17:27:30;102511.50;;;10.15;58.71
30073;BME280;16897;52.422;13.678;2023-02-11T17:31:31;102532.03;;;10.30;58.74
30073;BME280;16897;52.422;13.678;2023-02-11T17:35:33;102532.97;;;10.28;58.77
30073;BME280;16897;52.422;13.678;2023-02-11T17:39:38;102536.47;;;10.27;58.91
30073;BME280;16897;52.422;13.678;2023-02-11T17:43:39;102539.09;;;10.25;59.00
30073;BME280;16897;52.422;13.678;2023-02-11T17:47:41;102548.69;;;10.25;58.86
30073;BME280;16897;52.422;13.678;2023-02-11T17:51:42;102517.81;;;10.06;58.89
30073;BME280;16897;52.422;13.678;2023-02-11T17:55:43;102512.75;;;10.00;58.94
30073;BME280;16897;52.422;13.678;2023-02-11T17:59:45;102572.03;;;10.32;58.93
30073;BME280;16897;52.422;13.678;2023-02-11T18:03:46;102571.97;;;10.35;58.77
30073;BME280;16897;52.422;13.678;2023-02-11T18:07:48;102568.66;;;10.26;58.79
30073;BME280;16897;52.422;13.678;2023-02-11T18:11:49;102584.28;;;10.29;58.66
30073;BME280;16897;52.422;13.678;2023-02-11T18:15:52;102576.50;;;10.26;59.01
30073;BME280;16897;52.422;13.678;2023-02-11T18:19:55;102591.16;;;10.34;58.78
30073;BME280;16897;52.422;13.678;2023-02-11T18:23:57;102579.13;;;10.27;58.93
30073;BME280;16897;52.422;13.678;2023-02-11T18:27:58;102595.63;;;10.29;58.83
30073;BME280;16897;52.422;13.678;2023-02-11T18:32:00;102611.91;;;10.39;58.91
30073;BME280;16897;52.422;13.678;2023-02-11T18:36:05;102624.09;;;10.40;58.91
30073;BME280;16897;52.422;13.678;2023-02-11T18:40:07;102622.44;;;10.36;59.03
30073;BME280;16897;52.422;13.678;2023-02-11T18:44:11;102631.94;;;10.38;58.84
30073;BME280;16897;52.422;13.678;2023-02-11T18:48:15;102624.28;;;10.31;58.92
30073;BME280;16897;52.422;13.678;2023-02-11T18:52:17;102563.44;;;9.90;58.97
30073;BME280;16897;52.422;13.678;2023-02-11T18:56:21;102619.34;;;10.18;58.99
30073;BME280;16897;52.422;13.678;2023-02-11T19:00:23;102651.91;;;10.41;58.94
30073;BME280;16897;52.422;13.678;2023-02-11T19:04:25;102649.38;;;10.38;58.94
30073;BME280;16897;52.422;13.678;2023-02-11T19:08:26;102594.50;;;10.01;59.11
30073;BME280;16897;52.422;13.678;2023-02-11T19:12:28;102595.31;;;10.03;58.98
30073;BME280;16897;52.422;13.678;2023-02-11T19:16:29;102659.91;;;10.33;58.86
30073;BME280;16897;52.422;13.678;2023-02-11T19:20:31;102657.38;;;10.32;59.03
30073;BME280;16897;52.422;13.678;2023-02-11T19:24:34;102625.66;;;10.08;59.10
30073;BME280;16897;52.422;13.678;2023-02-11T19:28:36;102679.06;;;10.34;59.00
30073;BME280;16897;52.422;13.678;2023-02-11T19:32:37;102684.34;;;10.31;58.95
30073;BME280;16897;52.422;13.678;2023-02-11T19:36:39;102654.28;;;10.13;59.17
30073;BME280;16897;52.422;13.678;2023-02-11T19:40:40;102656.06;;;10.09;59.03
30073;BME280;16897;52.422;13.678;2023-02-11T19:44:42;102652.50;;;10.13;59.16
30073;BME280;16897;52.422;13.678;2023-02-11T19:48:44;102692.88;;;10.39;59.04
30073;BME280;16897;52.422;13.678;2023-02-11T19:52:45;102689.47;;;10.37;59.20
30073;BME280;16897;52.422;13.678;2023-02-11T19:56:47;102661.19;;;10.15;59.00
30073;BME280;16897;52.422;13.678;2023-02-11T20:00:48;102705.06;;;10.38;59.17
30073;BME280;16897;52.422;13.678;2023-02-11T20:04:50;102706.84;;;10.38;59.02
30073;BME280;16897;52.422;13.678;2023-02-11T20:08:53;102700.88;;;10.31;59.22
30073;BME280;16897;52.422;13.678;2023-02-11T20:12:54;102721.59;;;10.39;59.21
30073;BME280;16897;52.422;13.678;2023-02-11T20:16:56;102671.81;;;10.06;58.99
30073;BME280;16897;52.422;13.678;2023-02-11T20:20:57;102719.03;;;10.37;59.00
30073;BME280;16897;52.422;13.678;2023-02-11T20:25:01;102696.63;;;10.26;59.20
30073;BME280;16897;52.422;13.678;2023-02-11T20:29:03;102716.50;;;10.33;59.19
30073;BME280;16897;52.422;13.678;2023-02-11T20:33:04;102715.56;;;10.37;59.03
30073;BME280;16897;52.422;13.678;2023-02-11T20:37:06;102719.13;;;10.33;59.19
30073;BME280;16897;52.422;13.678;2023-02-11T20:41:14;102716.66;;;10.25;58.99
30073;BME280;16897;52.422;13.678;2023-02-11T20:45:16;102757.28;;;10.40;59.25
30073;BME280;16897;52.422;13.678;2023-02-11T20:49:20;102778.97;;;10.44;59.00
30073;BME280;16897;52.422;13.678;2023-02-11T20:53:22;102765.06;;;10.43;59.13
30073;BME280;16897;52.422;13.678;2023-02-11T20:57:23;102745.25;;;10.33;59.20
30073;BME280;16897;52.422;13.678;2023-02-11T21:01:29;102733.25;;;10.23;59.14
30073;BME280;16897;52.422;13.678;2023-02-11T21:05:31;102777.19;;;10.46;59.04
30073;BME280;16897;52.422;13.678;2023-02-11T21:09:34;102784.19;;;10.44;59.08
30073;BME280;16897;52.422;13.678;2023-02-11T21:13:37;102782.50;;;10.41;59.13
30073;BME280;16897;52.422;13.678;2023-02-11T21:17:38;102764.44;;;10.32;59.26
30073;BME280;16897;52.422;13.678;2023-02-11T21:21:40;102789.47;;;10.40;59.23
30073;BME280;16897;52.422;13.678;2023-02-11T21:25:41;102795.69;;;10.35;59.13
30073;BME280;16897;52.422;13.678;2023-02-11T21:29:43;102804.19;;;10.45;59.17
30073;BME280;16897;52.422;13.678;2023-02-11T21:33:44;102803.41;;;10.39;59.08
30073;BME280;16897;52.422;13.678;2023-02-11T21:37:47;102818.22;;;10.40;59.22
30073;BME280;16897;52.422;13.678;2023-02-11T21:41:48;102841.59;;;10.47;59.31
30073;BME280;16897;52.422;13.678;2023-02-11T21:45:50;102828.59;;;10.42;59.08
30073;BME280;16897;52.422;13.678;2023-02-11T21:49:51;102835.56;;;10.43;59.25
30073;BME280;16897;52.422;13.678;2023-02-11T21:53:57;102846.78;;;10.48;59.28
30073;BME280;16897;52.422;13.678;2023-02-11T21:57:59;102809.78;;;10.25;59.22
30073;BME280;16897;52.422;13.678;2023-02-11T22:02:00;102854.69;;;10.45;59.28
30073;BME280;16897;52.422;13.678;2023-02-11T22:06:10;102863.34;;;10.47;59.26
30073;BME280;16897;52.422;13.678;2023-02-11T22:10:11;102850.41;;;10.41;59.00
30073;BME280;16897;52.422;13.678;2023-02-11T22:14:13;102879.91;;;10.48;59.33
30073;BME280;16897;52.422;13.678;2023-02-11T22:18:15;102883.47;;;10.42;59.35
30073;BME280;16897;52.422;13.678;2023-02-11T22:22:16;102898.25;;;10.43;59.17
30073;BME280;16897;52.422;13.678;2023-02-11T22:26:21;102895.56;;;10.48;59.20
30073;BME280;16897;52.422;13.678;2023-02-11T22:30:23;102887.88;;;10.40;59.21
30073;BME280;16897;52.422;13.678;2023-02-11T22:34:25;102855.19;;;10.17;59.27
30073;BME280;16897;52.422;13.678;2023-02-11T22:38:27;102904.28;;;10.47;59.16
30073;BME280;16897;52.422;13.678;2023-02-11T22:42:29;102893.19;;;10.34;59.31
30073;BME280;16897;52.422;13.678;2023-02-11T22:46:31;102875.25;;;10.15;59.16
30073;BME280;16897;52.422;13.678;2023-02-11T22:50:33;102883.03;;;10.18;59.22
30073;BME280;16897;52.422;13.678;2023-02-11T22:54:35;102925.28;;;10.40;59.15
30073;BME280;16897;52.422;13.678;2023-02-11T22:58:36;102918.53;;;10.29;59.42
30073;BME280;16897;52.422;13.678;2023-02-11T23:02:37;102929.75;;;10.34;59.10
30073;BME280;16897;52.422;13.678;2023-02-11T23:06:39;102953.09;;;10.43;59.43
30073;BME280;16897;52.422;13.678;2023-02-11T23:10:40;102928.88;;;10.35;59.07
30073;BME280;16897;52.422;13.678;2023-02-11T23:14:42;102941.81;;;10.41;59.26
30073;BME280;16897;52.422;13.678;2023-02-11T23:18:45;102943.56;;;10.40;59.33
30073;BME280;16897;52.422;13.678;2023-02-11T23:22:47;102929.75;;;10.34;59.31